Time;durP1;ratioP1;P1;durP2;ratioP2;P2;SDS_P1;SDS_P2;PMS_P1;PMS_P2;Temp;Humidity;BMP_temperature;BMP_pressure;BME280_temperature;BME280_humidity;BME280_pressure;Samples;Min_cycle;Max_cycle;Signal;HPM_P1;HPM_P2
2022/03/21 00:00:45;141944.00;0.47;245.92;0.00;0.00;0.62;;;;;13.50;1.00;;;;;;2260173;61;1048;-88
2022/03/21 00:03:15;20295.00;0.07;35.78;0.00;0.00;0.62;;;;;13.70;1.00;;;;;;2260051;61;953;-86
2022/03/21 00:05:45;255162.00;0.85;440.83;0.00;0.00;0.62;;;;;13.20;1.00;;;;;;2260103;61;1449;-87
2022/03/21 00:08:12;207726.00;0.69;359.22;0.00;0.00;0.62;;;;;12.70;1.00;;;;;;2259822;61;1458;-85
2022/03/21 00:10:40;214049.00;0.71;370.10;32718.00;0.11;57.29;;;;;12.70;1.00;;;;;;2260030;61;1116;-84
2022/03/21 00:13:08;104277.00;0.35;180.95;0.00;0.00;0.62;;;;;12.70;1.00;;;;;;2259966;61;1568;-87
2022/03/21 00:15:35;45105.00;0.15;78.72;0.00;0.00;0.62;;;;;12.50;1.00;;;;;;2260033;61;1940;-85
2022/03/21 00:18:04;123640.00;0.41;214.36;0.00;0.00;0.62;;;;;12.60;1.00;;;;;;2259962;61;1109;-86
2022/03/21 00:20:33;140917.00;0.47;244.15;0.00;0.00;0.62;;;;;13.00;1.00;;;;;;2260032;61;953;-84
2022/03/21 00:23:01;139352.00;0.46;241.45;0.00;0.00;0.62;;;;;12.60;1.00;;;;;;2260080;61;1149;-84
2022/03/21 00:25:29;191377.00;0.64;331.08;0.00;0.00;0.62;;;;;12.00;1.00;;;;;;2259986;61;1561;-85
2022/03/21 00:27:56;80081.00;0.27;139.18;0.00;0.00;0.62;;;;;11.70;1.00;;;;;;2260075;61;1129;-85
2022/03/21 00:30:23;237911.00;0.79;411.16;0.00;0.00;0.62;;;;;12.30;1.00;;;;;;2259842;61;1716;-84
2022/03/21 00:32:50;8029.00;0.03;14.53;0.00;0.00;0.62;;;;;12.70;1.00;;;;;;2259869;61;2147;-85
2022/03/21 00:35:17;495290.00;1.65;853.72;72199.00;0.24;125.56;;;;;13.20;1.00;;;;;;2260021;61;1936;-89
2022/03/21 00:37:47;1531084.00;5.10;2701.75;59860.00;0.20;104.23;;;;;13.60;1.00;;;;;;2260036;61;1617;-88
2022/03/21 00:40:16;1355779.00;4.52;2374.56;129974.00;0.43;225.28;;;;;13.90;1.00;;;;;;2259971;61;1098;-86
2022/03/21 00:42:46;1206965.00;4.02;2102.82;123122.00;0.41;213.47;;;;;14.10;1.00;;;;;;2260160;61;1156;-86
2022/03/21 00:45:15;1233492.00;4.11;2150.89;59939.00;0.20;104.37;;;;;14.20;1.00;;;;;;2259814;61;1395;-86
2022/03/21 00:47:43;1371318.00;4.57;2403.23;98248.00;0.33;170.55;;;;;13.70;1.00;;;;;;2260009;61;1145;-85
2022/03/21 00:50:13;1205155.00;4.02;2099.54;45077.00;0.15;78.67;;;;;13.20;1.00;;;;;;2259822;61;2166;-85
2022/03/21 00:52:41;1500315.00;5.00;2643.71;73659.00;0.25;128.08;;;;;12.60;1.00;;;;;;2260010;61;1724;-88
2022/03/21 00:55:13;1553043.00;5.18;2743.33;60220.00;0.20;104.86;;;;;12.50;1.00;;;;;;2259930;61;1910;-88
2022/03/21 00:57:42;1363881.00;4.55;2389.50;89097.00;0.30;154.75;;;;;12.50;1.00;;;;;;2260177;61;993;-87
2022/03/21 01:00:12;1852334.00;6.17;3325.39;107117.00;0.36;185.86;;;;;12.80;1.00;;;;;;2260082;61;1020;-88
2022/03/21 01:02:40;1489611.00;4.97;2623.59;95114.00;0.32;165.14;;;;;12.60;1.00;;;;;;2259911;61;1586;-86
2022/03/21 01:05:09;1423131.00;4.74;2499.29;199188.00;0.66;344.53;;;;;12.50;1.00;;;;;;2259968;61;1359;-86
2022/03/21 01:07:37;956486.00;3.19;1655.55;113631.00;0.38;197.10;;;;;12.20;1.00;;;;;;2259844;61;1237;-86
2022/03/21 01:10:06;407484.00;1.36;702.67;110696.00;0.37;192.03;;;;;11.90;1.00;;;;;;2259842;61;1109;-87
2022/03/21 01:12:35;361200.00;1.20;623.11;79899.00;0.27;138.86;;;;;11.90;1.00;;;;;;2259863;61;1375;-86
2022/03/21 01:15:03;785914.00;2.62;1356.57;150775.00;0.50;261.14;;;;;12.10;1.00;;;;;;2259659;61;1993;-85
2022/03/21 01:17:30;402030.00;1.34;693.30;81048.00;0.27;140.85;;;;;11.90;1.00;;;;;;2259997;61;1620;-85
2022/03/21 01:19:57;481180.00;1.60;829.43;80247.00;0.27;139.46;;;;;11.70;1.00;;;;;;2259914;61;1729;-85
2022/03/21 01:22:24;406192.00;1.35;700.45;96951.00;0.32;168.31;;;;;11.20;1.00;;;;;;2260320;61;2144;-85
2022/03/21 01:24:52;363679.00;1.21;627.37;92400.00;0.31;160.45;;;;;10.90;1.00;;;;;;2260560;61;1283;-84
2022/03/21 01:27:21;477944.00;1.59;823.86;91878.00;0.31;159.55;;;;;10.50;1.00;;;;;;2260433;61;1138;-84
2022/03/21 01:29:49;286017.00;0.95;493.88;114693.00;0.38;198.93;;;;;10.40;1.00;;;;;;2260741;61;1051;-85
2022/03/21 01:32:17;552537.00;1.84;952.33;91646.00;0.31;159.15;;;;;10.00;1.00;;;;;;2260561;61;1561;-86
2022/03/21 01:34:45;304410.00;1.01;525.50;98485.00;0.33;170.96;;;;;9.30;1.00;;;;;;2260504;61;1910;-85
2022/03/21 01:37:12;351513.00;1.17;606.46;104603.00;0.35;181.52;;;;;9.30;1.00;;;;;;2260637;61;916;-86
2022/03/21 01:39:40;160664.00;0.54;278.18;0.00;0.00;0.62;;;;;9.30;1.00;;;;;;2260595;61;1096;-86
2022/03/21 01:42:07;141755.00;0.47;245.60;0.00;0.00;0.62;;;;;9.90;1.00;;;;;;2260452;61;1698;-87
2022/03/21 01:44:34;151957.00;0.51;263.18;0.00;0.00;0.62;;;;;10.00;1.00;;;;;;2260352;61;1475;-85
2022/03/21 01:47:03;201671.00;0.67;348.80;0.00;0.00;0.62;;;;;10.40;1.00;;;;;;2260640;61;1345;-87
2022/03/21 01:49:31;158262.00;0.53;274.04;0.00;0.00;0.62;;;;;11.00;1.00;;;;;;2260406;61;1086;-86
2022/03/21 01:51:58;148024.00;0.49;256.40;0.00;0.00;0.62;;;;;11.30;1.00;;;;;;2260584;61;1234;-84
2022/03/21 01:57:14;216058.00;0.72;373.56;0.00;0.00;0.62;;;;;11.20;1.00;;;;;;2257106;61;1449;-86
2022/03/21 01:59:42;101834.00;0.34;176.74;0.00;0.00;0.62;;;;;11.70;1.00;;;;;;2260573;61;1114;-86
2022/03/21 02:02:10;55198.00;0.18;96.17;0.00;0.00;0.62;;;;;11.60;1.00;;;;;;2260613;61;1053;-86
2022/03/21 02:04:37;27352.00;0.09;48.00;0.00;0.00;0.62;;;;;11.50;1.00;;;;;;2260510;61;1059;-88
2022/03/21 02:07:06;263089.00;0.88;454.46;0.00;0.00;0.62;;;;;11.60;1.00;;;;;;2260537;61;1567;-86
2022/03/21 02:09:35;41553.00;0.14;72.58;0.00;0.00;0.62;;;;;12.00;1.00;;;;;;2260227;61;1109;-85
2022/03/21 02:12:02;50962.00;0.17;88.85;0.00;0.00;0.62;;;;;12.40;1.00;;;;;;2260514;61;1148;-88
2022/03/21 02:14:30;257970.00;0.86;445.66;34430.00;0.11;60.25;;;;;12.70;1.00;;;;;;2260412;61;2012;-88
2022/03/21 02:16:57;355000.00;1.18;612.45;56545.00;0.19;98.50;;;;;12.40;1.00;;;;;;2260378;61;1303;-85
2022/03/21 02:19:30;86905.00;0.29;150.96;0.00;0.00;0.62;;;;;12.20;1.00;;;;;;2260383;61;1173;-88
2022/03/21 02:22:20;126645.00;0.42;219.54;0.00;0.00;0.62;;;;;12.40;1.00;;;;;;2260434;61;1794;-86
2022/03/21 02:25:00;102826.00;0.34;178.45;0.00;0.00;0.62;;;;;11.70;1.00;;;;;;2260337;61;1341;-84
2022/03/21 02:27:31;154408.00;0.51;267.40;0.00;0.00;0.62;;;;;11.30;1.00;;;;;;2260376;61;1102;-85
2022/03/21 02:29:59;380331.00;1.27;655.99;0.00;0.00;0.62;;;;;11.70;1.00;;;;;;2260394;61;1098;-85
2022/03/21 02:32:28;61519.00;0.21;107.10;0.00;0.00;0.62;;;;;12.30;1.00;;;;;;2260313;61;994;-85
2022/03/21 02:34:56;239696.00;0.80;414.23;43285.00;0.14;75.57;;;;;12.40;1.00;;;;;;2260241;61;1915;-87
2022/03/21 02:37:25;113080.00;0.38;196.14;0.00;0.00;0.62;;;;;12.20;1.00;;;;;;2260410;61;1093;-87
2022/03/21 02:39:55;34581.00;0.12;60.51;0.00;0.00;0.62;;;;;11.80;1.00;;;;;;2260286;61;2000;-87
2022/03/21 02:42:22;153614.00;0.51;266.04;0.00;0.00;0.62;;;;;11.60;1.00;;;;;;2260283;61;1211;-86
2022/03/21 02:44:50;64281.00;0.21;111.88;0.00;0.00;0.62;;;;;11.50;1.00;;;;;;2260264;61;1415;-84
2022/03/21 02:47:17;111963.00;0.37;194.22;0.00;0.00;0.62;;;;;11.90;1.00;;;;;;2260359;61;1136;-87
2022/03/21 02:49:45;116434.00;0.39;201.93;0.00;0.00;0.62;;;;;12.20;1.00;;;;;;2260490;61;1181;-86
2022/03/21 02:52:15;49608.00;0.17;86.51;0.00;0.00;0.62;;;;;12.30;1.00;;;;;;2260329;61;1176;-87
2022/03/21 02:54:42;19459.00;0.06;34.33;0.00;0.00;0.62;;;;;12.40;1.00;;;;;;2260061;61;1916;-86
2022/03/21 02:57:10;18159.00;0.06;32.08;0.00;0.00;0.62;;;;;12.50;1.00;;;;;;2260386;61;1164;-84
2022/03/21 02:59:37;35793.00;0.12;62.61;0.00;0.00;0.62;;;;;12.30;1.00;;;;;;2260165;61;1465;-86
2022/03/21 03:02:08;82727.00;0.28;143.75;0.00;0.00;0.62;;;;;12.70;1.00;;;;;;2260267;61;1109;-85
2022/03/21 03:04:35;230716.00;0.77;398.78;24424.00;0.08;42.93;;;;;12.50;1.00;;;;;;2260164;61;1015;-85
2022/03/21 03:07:02;149092.00;0.50;258.24;387.00;0.00;1.29;;;;;12.70;1.00;;;;;;2260209;61;1727;-85
2022/03/21 03:09:29;127870.00;0.43;221.66;0.00;0.00;0.62;;;;;12.80;1.00;;;;;;2260139;61;968;-85
2022/03/21 03:11:56;72826.00;0.24;126.64;0.00;0.00;0.62;;;;;13.10;1.00;;;;;;2260292;61;1065;-85
2022/03/21 03:14:24;107808.00;0.36;187.05;0.00;0.00;0.62;;;;;13.10;1.00;;;;;;2260199;61;1995;-86
2022/03/21 03:16:50;227043.00;0.76;392.46;14399.00;0.05;25.57;;;;;12.80;1.00;;;;;;2260277;61;1303;-85
2022/03/21 03:19:19;107100.00;0.36;185.83;0.00;0.00;0.62;;;;;12.70;1.00;;;;;;2260294;61;984;-83
2022/03/21 03:21:49;85168.00;0.28;147.96;0.00;0.00;0.62;;;;;12.60;1.00;;;;;;2260000;61;1046;-86
2022/03/21 03:24:19;981204.00;3.27;1699.21;43659.00;0.15;76.22;;;;;13.00;1.00;;;;;;2260267;61;1712;-85
2022/03/21 03:26:46;1317128.00;4.39;2303.49;105760.00;0.35;183.51;;;;;12.70;1.00;;;;;;2259890;61;1293;-87
2022/03/21 03:29:13;1578859.00;5.26;2792.40;82312.00;0.27;143.03;;;;;12.40;1.00;;;;;;2260315;61;1601;-86
2022/03/21 03:31:40;1443449.00;4.81;2537.15;52158.00;0.17;90.92;;;;;12.50;1.00;;;;;;2260259;61;999;-86
2022/03/21 03:34:08;1578252.00;5.26;2791.25;103993.00;0.35;180.46;;;;;12.50;1.00;;;;;;2260234;61;1176;-87
2022/03/21 03:36:36;1590173.00;5.30;2813.97;203763.00;0.68;352.40;;;;;12.70;1.00;;;;;;2260288;61;2010;-89
2022/03/21 03:39:04;1645935.00;5.49;2920.85;172034.00;0.57;297.77;;;;;12.90;1.00;;;;;;2260330;61;1051;-86
2022/03/21 03:41:31;1574080.00;5.25;2783.31;164358.00;0.55;284.55;;;;;12.90;1.00;;;;;;2260347;61;969;-88
2022/03/21 03:43:58;411625.00;1.37;709.79;82235.00;0.27;142.90;;;;;13.10;1.00;;;;;;2259954;61;1480;-88
2022/03/21 03:46:26;419847.00;1.40;723.93;95047.00;0.32;165.02;;;;;13.20;1.00;;;;;;2260147;61;1868;-88
2022/03/21 03:48:54;232539.00;0.78;401.92;79566.00;0.27;138.29;;;;;13.20;1.00;;;;;;2260166;61;1060;-88
2022/03/21 03:51:21;224753.00;0.75;388.52;86807.00;0.29;150.79;;;;;13.30;1.00;;;;;;2260147;61;1341;-87
2022/03/21 03:53:50;258235.00;0.86;446.11;85299.00;0.28;148.19;;;;;13.40;1.00;;;;;;2260083;61;1687;-87
2022/03/21 03:56:17;133520.00;0.45;231.40;11653.00;0.04;20.81;;;;;13.30;1.00;;;;;;2259989;61;1923;-88
2022/03/21 03:58:44;108252.00;0.36;187.81;0.00;0.00;0.62;;;;;12.70;1.00;;;;;;2260205;61;1088;-87
2022/03/21 04:01:11;73706.00;0.25;128.16;0.00;0.00;0.62;;;;;12.70;1.00;;;;;;2260254;61;1063;-87
2022/03/21 04:03:49;59896.00;0.20;104.30;0.00;0.00;0.62;;;;;12.90;1.00;;;;;;2260088;61;2148;-87
2022/03/21 04:06:17;159624.00;0.53;276.39;0.00;0.00;0.62;;;;;12.60;1.00;;;;;;2260022;61;1604;-87
2022/03/21 04:08:45;231229.00;0.77;399.66;0.00;0.00;0.62;;;;;12.50;1.00;;;;;;2260036;61;1739;-87
2022/03/21 04:11:14;89996.00;0.30;156.30;0.00;0.00;0.62;;;;;12.00;1.00;;;;;;2260098;61;1665;-86
2022/03/21 04:13:42;184981.00;0.62;320.07;0.00;0.00;0.62;;;;;11.70;1.00;;;;;;2260027;61;1144;-87
2022/03/21 04:16:09;109691.00;0.37;190.30;0.00;0.00;0.62;;;;;12.00;1.00;;;;;;2259985;61;2001;-88
2022/03/21 04:18:38;239939.00;0.80;414.65;0.00;0.00;0.62;;;;;12.10;1.00;;;;;;2260026;61;984;-87
2022/03/21 04:21:05;19002.00;0.06;33.54;0.00;0.00;0.62;;;;;12.30;1.00;;;;;;2260176;61;1576;-87
2022/03/21 04:23:32;62623.00;0.21;109.01;0.00;0.00;0.62;;;;;12.60;1.00;;;;;;2260048;61;1153;-88
2022/03/21 04:25:59;142224.00;0.47;246.40;0.00;0.00;0.62;;;;;12.90;1.00;;;;;;2260066;61;1369;-87
2022/03/21 04:28:28;105543.00;0.35;183.14;0.00;0.00;0.62;;;;;12.50;1.00;;;;;;2260196;61;1099;-88
2022/03/21 04:30:55;145139.00;0.48;251.43;0.00;0.00;0.62;;;;;12.40;1.00;;;;;;2260176;61;1051;-88
2022/03/21 04:33:22;129301.00;0.43;224.12;0.00;0.00;0.62;;;;;12.30;1.00;;;;;;2260160;61;1188;-89
2022/03/21 04:35:49;161710.00;0.54;279.99;0.00;0.00;0.62;;;;;12.50;1.00;;;;;;2260054;61;2005;-89
2022/03/21 04:38:16;2005.00;0.01;4.10;0.00;0.00;0.62;;;;;12.60;1.00;;;;;;2260028;61;1172;-86
2022/03/21 04:40:45;87916.00;0.29;152.71;0.00;0.00;0.62;;;;;12.60;1.00;;;;;;2260243;61;971;-88
2022/03/21 04:43:13;197361.00;0.66;341.38;0.00;0.00;0.62;;;;;12.60;1.00;;;;;;2260059;61;1263;-88
2022/03/21 04:45:42;229999.00;0.77;397.55;0.00;0.00;0.62;;;;;12.60;1.00;;;;;;2259957;61;1572;-87
2022/03/21 04:48:09;86743.00;0.29;150.68;0.00;0.00;0.62;;;;;12.50;1.00;;;;;;2260007;61;970;-88
2022/03/21 04:50:37;157360.00;0.52;272.49;0.00;0.00;0.62;;;;;12.40;1.00;;;;;;2260184;61;995;-87
2022/03/21 04:53:04;151295.00;0.50;262.04;19605.00;0.07;34.59;;;;;12.50;1.00;;;;;;2260168;61;1556;-88
2022/03/21 04:55:32;235963.00;0.79;407.81;61187.00;0.20;106.53;;;;;12.40;1.00;;;;;;2259974;61;1916;-86
2022/03/21 04:57:59;14406.00;0.05;25.58;0.00;0.00;0.62;;;;;12.20;1.00;;;;;;2260653;61;1025;-86
2022/03/21 05:00:26;205299.00;0.68;355.04;0.00;0.00;0.62;;;;;12.00;1.00;;;;;;2260601;61;1083;-85
2022/03/21 05:02:55;163043.00;0.54;282.28;0.00;0.00;0.62;;;;;12.30;1.00;;;;;;2260667;61;1084;-86
2022/03/21 05:05:22;88264.00;0.29;153.31;0.00;0.00;0.62;;;;;12.40;1.00;;;;;;2260578;61;1295;-85
2022/03/21 05:07:52;193074.00;0.64;334.00;0.00;0.00;0.62;;;;;12.60;1.00;;;;;;2260670;61;1086;-86
2022/03/21 05:10:21;652795.00;2.18;1125.47;25551.00;0.09;44.88;;;;;12.80;1.00;;;;;;2260645;61;1519;-86
2022/03/21 05:12:48;984734.00;3.28;1705.45;40862.00;0.14;71.38;;;;;12.80;1.00;;;;;;2260616;61;1396;-87
2022/03/21 05:15:15;887662.00;2.96;1534.46;26471.00;0.09;46.47;;;;;12.50;1.00;;;;;;2260564;61;1936;-85
2022/03/21 05:17:43;1672880.00;5.58;2972.85;60567.00;0.20;105.46;;;;;12.20;1.00;;;;;;2260651;61;1112;-87
2022/03/21 05:20:15;1252234.00;4.17;2184.95;20629.00;0.07;36.36;;;;;11.90;1.00;;;;;;2260613;61;1291;-86
2022/03/21 05:22:42;1369497.00;4.56;2399.87;171690.00;0.57;297.18;;;;;11.90;1.00;;;;;;2260670;61;1272;-87
2022/03/21 05:36:09;486019.00;1.62;837.76;54632.00;0.18;95.20;;;;;12.40;1.00;;;;;;2260504;61;2004;-86
2022/03/21 05:38:36;383634.00;1.28;661.67;80014.00;0.27;139.06;;;;;12.40;1.00;;;;;;2260267;61;1077;-86
2022/03/21 05:41:04;343282.00;1.14;592.31;95711.00;0.32;166.17;;;;;12.60;1.00;;;;;;2260533;61;1120;-86
2022/03/21 05:43:33;414557.00;1.38;714.83;93372.00;0.31;162.13;;;;;12.60;1.00;;;;;;2260487;61;1582;-86
2022/03/21 05:46:00;345850.00;1.15;596.73;110323.00;0.37;191.39;;;;;12.40;1.00;;;;;;2260430;61;1300;-87
2022/03/21 05:51:14;997237.00;3.32;1727.58;79569.00;0.27;138.29;;;;;12.10;1.00;;;;;;2260626;61;681;-87
2022/03/21 05:53:41;1429336.00;4.76;2510.84;65657.00;0.22;114.25;;;;;12.20;1.00;;;;;;2260614;61;1117;-85
2022/03/21 05:56:09;1420509.00;4.74;2494.42;59771.00;0.20;104.08;;;;;12.20;1.00;;;;;;2260529;61;1920;-87
2022/03/21 05:58:36;1543398.00;5.14;2725.05;105896.00;0.35;183.75;;;;;11.90;1.00;;;;;;2260576;61;1228;-86
2022/03/21 06:01:03;1572671.00;5.24;2780.62;383007.00;1.28;660.59;;;;;11.20;1.00;;;;;;2260476;61;1060;-86
2022/03/21 06:03:30;304387.00;1.01;525.46;86847.00;0.29;150.86;;;;;10.60;1.00;;;;;;2260420;61;1127;-84
2022/03/21 06:05:57;358234.00;1.19;618.01;73577.00;0.25;127.94;;;;;9.90;1.00;;;;;;2260358;61;1344;-85
2022/03/21 06:08:26;389416.00;1.30;671.61;95256.00;0.32;165.38;;;;;10.20;1.00;;;;;;2260210;61;1632;-84
2022/03/21 06:11:03;359331.00;1.20;619.90;91916.00;0.31;159.62;;;;;10.10;1.00;;;;;;2260302;61;1115;-85
2022/03/21 06:13:32;477101.00;1.59;822.41;84760.00;0.28;147.26;;;;;10.20;1.00;;;;;;2260000;61;1456;-85
2022/03/21 06:16:03;479715.00;1.60;826.91;126408.00;0.42;219.13;;;;;10.30;1.00;;;;;;2260219;61;1993;-86
2022/03/21 06:18:30;467119.00;1.56;805.23;94341.00;0.31;163.80;;;;;10.80;1.00;;;;;;2260373;61;1076;-86
2022/03/21 06:20:57;367969.00;1.23;634.75;88925.00;0.30;154.45;;;;;11.20;1.00;;;;;;2260413;61;904;-85
2022/03/21 06:23:25;325121.00;1.08;561.10;73718.00;0.25;128.18;;;;;12.10;1.00;;;;;;2260236;61;1138;-85
2022/03/21 06:25:53;40615.00;0.14;70.95;0.00;0.00;0.62;;;;;12.40;1.00;;;;;;2260299;61;1389;-87
2022/03/21 06:28:21;124792.00;0.42;216.35;0.00;0.00;0.62;;;;;12.60;1.00;;;;;;2260385;61;1037;-86
2022/03/21 06:30:50;432747.00;1.44;746.11;44353.00;0.15;77.42;;;;;12.80;1.00;;;;;;2260277;61;1084;-86
2022/03/21 06:33:17;170038.00;0.57;294.33;0.00;0.00;0.62;;;;;13.30;1.00;;;;;;2260363;61;1091;-86
2022/03/21 06:35:44;27776.00;0.09;48.73;0.00;0.00;0.62;;;;;13.60;1.00;;;;;;2260211;61;2013;-85
2022/03/21 06:38:11;117114992.00;390.38;65067364.00;0.00;0.00;0.62;;;;;13.80;1.00;;;;;;2260297;61;1256;-86
2022/03/21 06:40:40;120654.00;0.40;209.21;0.00;0.00;0.62;;;;;14.10;1.00;;;;;;2260305;61;1626;-86
2022/03/21 06:43:07;88159.00;0.29;153.13;0.00;0.00;0.62;;;;;14.30;1.00;;;;;;2260142;61;1080;-85
2022/03/21 06:45:34;39988.00;0.13;69.87;0.00;0.00;0.62;;;;;14.30;1.00;;;;;;2260138;61;1305;-85
2022/03/21 06:48:02;143394.00;0.48;248.42;0.00;0.00;0.62;;;;;13.60;1.00;;;;;;2260200;61;1156;-85
2022/03/21 06:50:29;187110.00;0.62;323.73;34367.00;0.11;60.14;;;;;13.20;1.00;;;;;;2260170;61;1117;-86
2022/03/21 06:52:55;206420.00;0.69;356.97;0.00;0.00;0.62;;;;;13.30;1.00;;;;;;2260229;61;1123;-85
2022/03/21 06:55:22;35792.00;0.12;62.61;0.00;0.00;0.62;;;;;13.80;1.00;;;;;;2260125;61;1266;-87
2022/03/21 06:57:51;403889.00;1.35;696.49;0.00;0.00;0.62;;;;;14.20;1.00;;;;;;2260318;61;2007;-88
2022/03/21 07:00:18;279949.00;0.93;483.45;0.00;0.00;0.62;;;;;14.80;1.00;;;;;;2260235;61;1727;-85
2022/03/21 07:02:47;109379.00;0.36;189.76;12925.00;0.04;23.02;;;;;15.10;1.00;;;;;;2260313;61;2030;-84
2022/03/21 07:05:14;86280.00;0.29;149.88;0.00;0.00;0.62;;;;;15.40;1.00;;;;;;2260123;61;1383;-86
2022/03/21 07:07:43;199785.00;0.67;345.55;0.00;0.00;0.62;;;;;15.70;1.00;;;;;;2260033;61;1001;-85
2022/03/21 07:10:10;251025.00;0.84;433.71;0.00;0.00;0.62;;;;;15.50;1.00;;;;;;2260048;61;1584;-87
2022/03/21 07:12:38;117585144.00;391.95;65854848.00;0.00;0.00;0.62;;;;;15.10;1.00;;;;;;2260110;61;1729;-86
2022/03/21 07:15:08;173091.00;0.58;299.59;0.00;0.00;0.62;;;;;14.20;1.00;;;;;;2259759;61;1353;-84
2022/03/21 07:17:35;75111.00;0.25;130.59;0.00;0.00;0.62;;;;;13.90;1.00;;;;;;2259673;61;2026;-85
2022/03/21 07:20:02;186382.00;0.62;322.48;0.00;0.00;0.62;;;;;13.50;1.00;;;;;;2259775;61;1231;-84
2022/03/21 07:22:29;123015.00;0.41;213.28;0.00;0.00;0.62;;;;;13.10;1.00;;;;;;2260018;61;1135;-84
2022/03/21 07:24:56;251588.00;0.84;434.68;0.00;0.00;0.62;;;;;13.10;1.00;;;;;;2259992;61;1265;-87
2022/03/21 07:27:23;260880.00;0.87;450.66;0.00;0.00;0.62;;;;;13.70;1.00;;;;;;2260031;61;1136;-85
2022/03/21 07:29:50;271614.00;0.91;469.12;29083.00;0.10;51.00;;;;;14.30;1.00;;;;;;2259860;61;1020;-86
2022/03/21 07:32:19;180323.00;0.60;312.05;0.00;0.00;0.62;;;;;14.20;1.00;;;;;;2259984;61;1077;-85
2022/03/21 07:34:46;74412.00;0.25;129.38;0.00;0.00;0.62;;;;;14.70;1.00;;;;;;2260048;61;1663;-86
2022/03/21 07:37:13;163393.00;0.54;282.89;0.00;0.00;0.62;;;;;15.00;1.00;;;;;;2259942;61;2017;-87
2022/03/21 07:39:44;104685.00;0.35;181.66;0.00;0.00;0.62;;;;;14.60;1.00;;;;;;2260046;61;1092;-85
2022/03/21 07:42:15;86677.00;0.29;150.57;0.00;0.00;0.62;;;;;14.30;1.00;;;;;;2260054;61;1164;-86
2022/03/21 07:47:28;141728.00;0.47;245.55;0.00;0.00;0.62;;;;;15.60;1.00;;;;;;2259922;61;750;-86
2022/03/21 07:49:56;175085.00;0.58;303.03;0.00;0.00;0.62;;;;;15.80;1.00;;;;;;2260013;61;1599;-83
2022/03/21 07:52:24;86698.00;0.29;150.61;0.00;0.00;0.62;;;;;16.30;1.00;;;;;;2259667;61;1179;-85
2022/03/21 07:54:54;171130.00;0.57;296.21;0.00;0.00;0.62;;;;;16.40;1.00;;;;;;2259674;61;1380;-82
2022/03/21 07:57:22;141363.00;0.47;244.92;31185.00;0.10;54.63;;;;;16.50;1.00;;;;;;2259761;61;1919;-83
2022/03/21 07:59:49;561024.00;1.87;966.97;44101.00;0.15;76.98;;;;;16.80;1.00;;;;;;2259855;61;2348;-84
2022/03/21 08:02:18;1011039.00;3.37;1752.03;74793.00;0.25;130.04;;;;;16.90;1.00;;;;;;2259562;61;1211;-85
2022/03/21 08:04:47;1090034.00;3.63;1892.61;50259.00;0.17;87.63;;;;;17.40;1.00;;;;;;2259443;61;1269;-83
2022/03/21 08:07:14;1112597.00;3.71;1932.97;51547.00;0.17;89.86;;;;;17.20;1.00;;;;;;2259778;61;1768;-86
2022/03/21 08:09:41;1411145.00;4.70;2477.01;96930.00;0.32;168.27;;;;;16.90;1.00;;;;;;2259612;61;1049;-83
2022/03/21 08:12:09;1659720.00;5.53;2947.43;215428.00;0.72;372.48;;;;;17.00;1.00;;;;;;2259711;61;1153;-85
2022/03/21 08:14:36;1233909.00;4.11;2151.65;171693.00;0.57;297.18;;;;;16.80;1.00;;;;;;2259816;61;1139;-84
2022/03/21 08:17:03;1034084.00;3.45;1792.93;131514.00;0.44;227.94;;;;;17.00;1.00;;;;;;2259961;61;1923;-84
2022/03/21 08:19:30;1167054.00;3.89;2030.77;169132.00;0.56;292.77;;;;;17.30;1.00;;;;;;2260193;61;1162;-87
2022/03/21 08:21:59;391142.00;1.30;674.58;96349.00;0.32;167.27;;;;;17.60;1.00;;;;;;2259941;61;1155;-86
2022/03/21 08:24:26;456349.00;1.52;786.70;77458.00;0.26;134.65;;;;;17.80;1.00;;;;;;2260156;61;975;-87
2022/03/21 08:26:54;387977.00;1.29;669.14;96944.00;0.32;168.30;;;;;17.20;1.00;;;;;;2259882;61;1360;-89
2022/03/21 08:29:23;656913.00;2.19;1132.60;122029.00;0.41;211.58;;;;;17.40;1.00;;;;;;2259885;61;1047;-87
2022/03/21 08:31:57;1157267.00;3.86;2013.15;119174.00;0.40;206.66;;;;;17.50;1.00;;;;;;2259876;61;1065;-85
2022/03/21 08:34:25;1395654.00;4.65;2448.27;188646.00;0.63;326.38;;;;;17.90;1.00;;;;;;2259924;61;1057;-84
2022/03/21 08:36:52;1229576.00;4.10;2143.79;199196.00;0.66;344.54;;;;;17.60;1.00;;;;;;2259637;61;1997;-85
2022/03/21 08:39:20;1462310.00;4.87;2572.40;115987.00;0.39;201.16;;;;;17.30;1.00;;;;;;2259868;61;1132;-85
2022/03/21 08:41:47;1215678.00;4.05;2118.59;150928.00;0.50;261.41;;;;;17.60;1.00;;;;;;2259643;61;1174;-83
2022/03/21 08:44:14;118079232.00;393.60;66689252.00;131785.00;0.44;228.41;;;;;17.40;1.00;;;;;;2259926;61;1164;-82
2022/03/21 08:46:42;118020320.00;393.40;66589392.00;117170944.00;390.57;65160760.00;;;;;17.30;1.00;;;;;;2259865;61;1397;-85
2022/03/21 08:51:53;1137615.00;3.79;1977.82;142406.00;0.47;246.72;;;;;16.00;1.00;;;;;;2257891;61;1176;-85
2022/03/21 08:54:25;1743861.00;5.81;3110.97;115168.00;0.38;199.75;;;;;16.80;1.00;;;;;;2259945;61;1148;-86
2022/03/21 08:56:52;1530446.00;5.10;2700.54;78938.00;0.26;137.20;;;;;16.60;1.00;;;;;;2259539;61;2018;-86
2022/03/21 08:59:19;1007960.00;3.36;1746.57;111150.00;0.37;192.81;;;;;16.80;1.00;;;;;;2259805;61;1937;-86
2022/03/21 09:01:55;1093601.00;3.65;1898.98;103519.00;0.35;179.65;;;;;17.00;1.00;;;;;;2259761;61;1603;-84
2022/03/21 09:04:22;1280918.00;4.27;2237.23;128236.00;0.43;222.29;;;;;16.60;1.00;;;;;;2259684;61;1555;-87
2022/03/21 09:06:50;940184.00;3.13;1626.81;30646.00;0.10;53.70;;;;;16.20;1.00;;;;;;2259666;61;1340;-85
2022/03/21 09:09:20;1190745.00;3.97;2073.50;28417.00;0.09;49.84;;;;;16.50;1.00;;;;;;2259289;61;1887;-86
2022/03/21 09:11:57;1424612.00;4.75;2502.05;64983.00;0.22;113.09;;;;;16.50;1.00;;;;;;2259915;61;1737;-87
2022/03/21 09:14:35;1107359.00;3.69;1923.59;133906.00;0.45;232.06;;;;;16.60;1.00;;;;;;2259856;61;1097;-85
2022/03/21 09:17:04;1435551.00;4.79;2522.42;33955.00;0.11;59.43;;;;;16.90;1.00;;;;;;2259674;61;1911;-86
2022/03/21 09:19:35;1079385.00;3.60;1873.60;108167.00;0.36;187.67;;;;;16.80;1.00;;;;;;2259773;61;1282;-87
2022/03/21 09:22:03;596081.00;1.99;1027.45;0.00;0.00;0.62;;;;;16.70;1.00;;;;;;2259941;61;1253;-86
2022/03/21 09:24:38;1116482.00;3.72;1939.92;105298.00;0.35;182.72;;;;;16.50;1.00;;;;;;2259892;61;1599;-86
2022/03/21 09:27:10;317782.00;1.06;548.49;4091.00;0.01;7.71;;;;;16.70;1.00;;;;;;2259240;61;1429;-84
2022/03/21 09:29:42;342618.00;1.14;591.17;43099.00;0.14;75.25;;;;;17.20;1.00;;;;;;2259891;61;1315;-86
2022/03/21 09:32:15;153592.00;0.51;266.00;0.00;0.00;0.62;;;;;17.40;1.00;;;;;;2259638;61;1426;-85
2022/03/21 09:34:43;787164.00;2.62;1358.75;13757.00;0.05;24.46;;;;;17.40;1.00;;;;;;2259858;61;1072;-86
2022/03/21 09:37:19;946082.00;3.15;1637.20;116020.00;0.39;201.22;;;;;17.30;1.00;;;;;;2259871;61;1994;-86
2022/03/21 09:39:54;202097.00;0.67;349.53;0.00;0.00;0.62;;;;;17.70;1.00;;;;;;2259601;61;1595;-84
2022/03/21 09:42:24;301983.00;1.01;521.33;0.00;0.00;0.62;;;;;17.40;1.00;;;;;;2259895;61;1115;-83
2022/03/21 09:45:04;104518.00;0.35;181.37;0.00;0.00;0.62;;;;;17.50;1.00;;;;;;2260320;61;1466;-83
2022/03/21 09:50:23;117523.00;0.39;203.81;0.00;0.00;0.62;;;;;18.00;1.00;;;;;;2260350;61;654;-84
2022/03/21 09:52:54;387692.00;1.29;668.65;0.00;0.00;0.62;;;;;17.70;1.00;;;;;;2260449;61;1190;-84
2022/03/21 09:55:21;672544.00;2.24;1159.66;6864.00;0.02;12.52;;;;;17.50;1.00;;;;;;2260089;61;1687;-85
2022/03/21 09:57:53;961678.00;3.21;1664.71;34238.00;0.11;59.92;;;;;17.50;1.00;;;;;;2260337;61;1995;-87
2022/03/21 10:00:22;1827043.00;6.09;3275.02;120514.00;0.40;208.97;;;;;17.50;1.00;;;;;;2260190;61;1034;-84
2022/03/21 10:02:52;1495720.00;4.99;2635.07;90076.00;0.30;156.44;;;;;17.40;1.00;;;;;;2260619;61;1154;-87
2022/03/21 10:05:42;1426948.00;4.76;2506.40;137009.00;0.46;237.41;;;;;17.00;1.00;;;;;;2260500;61;1371;-87
2022/03/21 10:08:13;281041.00;0.94;485.33;0.00;0.00;0.62;;;;;16.60;1.00;;;;;;2259821;61;1617;-87